Boydell, Arkansas
Current Conditions -  °F | °C
As of 2:53 AM on Sunday 26 Oct 2014 (Local Time) from KLLQ Reporting Station
Clear Clear  
Wind Chill: 67°   Ceiling: Unl
Heat Index: 67°   Visibility: 10mi
Dew Point: 62°   Wind: 3mph
Humidity: 84%   Direction: 250°WSW
Pressure: 30.02"   Gusts: NA
Location:  33.3267°N, 91.5515°W
Report Text: KLLQ 260753Z AUTO 25003KT 10SM CLR 19/17 A3002 RMK AO2 SLP163 T01940167
Loading
Personal Weather Stations






























Interactive Weather Map New forecast layout! Learn more

10-Day Weather Forecast

Advertisements
Track Severe Weather on mobile